Time;durP1;ratioP1;P1;durP2;ratioP2;P2;SDS_P1;SDS_P2;PMS_P1;PMS_P2;Temp;Humidity;BMP_temperature;BMP_pressure;BME280_temperature;BME280_humidity;BME280_pressure;Samples;Min_cycle;Max_cycle;Signal;HPM_P1;HPM_P2
2021/01/18 00:00:13;;;;;;;1.60;1.37;;;4.40;98.20;;;;;;5091654;28;20492;-78
2021/01/18 00:02:40;;;;;;;1.60;1.40;;;4.40;98.20;;;;;;5084855;28;20496;-78
2021/01/18 00:05:08;;;;;;;1.60;1.30;;;4.40;98.20;;;;;;5092221;28;20478;-77
2021/01/18 00:07:46;;;;;;;1.63;1.30;;;4.30;98.20;;;;;;5091633;28;20453;-77
2021/01/18 00:10:14;;;;;;;1.67;1.40;;;4.30;98.20;;;;;;5089302;28;20499;-77
2021/01/18 00:12:45;;;;;;;1.60;1.30;;;4.30;98.20;;;;;;5089701;28;20588;-77
2021/01/18 00:15:13;;;;;;;1.70;1.40;;;4.30;98.20;;;;;;5092564;28;20464;-78
2021/01/18 00:17:39;;;;;;;1.70;1.40;;;4.30;98.20;;;;;;5091497;28;20507;-77
2021/01/18 00:20:07;;;;;;;1.63;1.33;;;4.30;98.20;;;;;;5087755;28;20489;-77
2021/01/18 00:22:36;;;;;;;1.70;1.50;;;4.30;98.20;;;;;;5089852;28;20962;-77
2021/01/18 00:25:04;;;;;;;1.67;1.40;;;4.30;98.20;;;;;;5091584;28;20467;-77
2021/01/18 00:27:30;;;;;;;1.67;1.30;;;4.30;98.20;;;;;;5091185;28;20468;-77
2021/01/18 00:29:57;;;;;;;1.60;1.30;;;4.30;98.20;;;;;;5085474;28;20648;-76
2021/01/18 00:32:24;;;;;;;1.70;1.40;;;4.30;98.20;;;;;;5087252;28;20504;-77
2021/01/18 00:34:51;;;;;;;1.70;1.30;;;4.30;98.20;;;;;;5092881;28;20453;-77
2021/01/18 00:37:17;;;;;;;1.67;1.40;;;4.30;98.20;;;;;;5092676;28;20543;-77
2021/01/18 00:39:44;;;;;;;1.67;1.40;;;4.20;98.20;;;;;;5088936;28;20476;-77
2021/01/18 00:42:16;;;;;;;1.70;1.40;;;4.20;98.20;;;;;;5095432;28;20467;-77
2021/01/18 00:44:43;;;;;;;1.60;1.50;;;4.20;98.20;;;;;;5096091;28;20471;-76
2021/01/18 00:47:10;;;;;;;1.67;1.40;;;4.20;98.20;;;;;;5087430;28;20465;-77
2021/01/18 00:49:37;;;;;;;1.63;1.40;;;4.20;98.20;;;;;;5095755;28;20506;-78
2021/01/18 00:52:04;;;;;;;1.60;1.30;;;4.20;98.20;;;;;;5100368;28;20566;-77
2021/01/18 00:54:30;;;;;;;1.70;1.60;;;4.20;98.20;;;;;;5094529;28;20475;-79
2021/01/18 00:56:56;;;;;;;1.67;1.37;;;4.30;98.20;;;;;;5092679;28;20525;-79
2021/01/18 00:59:23;;;;;;;1.60;1.30;;;4.30;98.20;;;;;;5093169;28;20738;-76
2021/01/18 01:01:49;;;;;;;1.60;1.30;;;4.30;98.20;;;;;;5092824;28;20661;-77
2021/01/18 01:04:17;;;;;;;1.70;1.40;;;4.30;98.20;;;;;;5087814;28;20547;-77
2021/01/18 01:06:43;;;;;;;1.63;1.33;;;4.30;98.20;;;;;;5093402;28;20463;-77
2021/01/18 01:09:10;;;;;;;1.67;1.50;;;4.30;98.20;;;;;;5093955;28;21067;-77
2021/01/18 01:11:43;;;;;;;1.60;1.30;;;4.30;98.20;;;;;;5087461;28;20508;-77
2021/01/18 01:14:10;;;;;;;1.60;1.30;;;4.30;98.20;;;;;;5092701;28;20528;-77
2021/01/18 01:16:37;;;;;;;1.60;1.40;;;4.30;98.20;;;;;;5093309;28;20460;-77
2021/01/18 01:19:03;;;;;;;1.60;1.30;;;4.30;98.20;;;;;;5093529;28;20567;-76
2021/01/18 01:21:31;;;;;;;1.63;1.33;;;4.30;98.20;;;;;;5090033;28;20488;-77
2021/01/18 01:23:57;;;;;;;1.63;1.30;;;4.30;98.20;;;;;;5090831;28;20493;-77
2021/01/18 01:26:23;;;;;;;1.70;1.40;;;4.30;98.20;;;;;;5088861;28;20460;-77
2021/01/18 01:28:50;;;;;;;1.70;1.40;;;4.30;98.20;;;;;;5093691;28;20520;-77
2021/01/18 01:31:17;;;;;;;1.70;1.40;;;4.30;98.20;;;;;;5082807;28;20568;-77
2021/01/18 01:33:43;;;;;;;1.63;1.40;;;4.30;98.20;;;;;;5090709;28;20476;-76
2021/01/18 01:36:10;;;;;;;1.67;1.40;;;4.30;98.20;;;;;;5092993;28;20456;-77
2021/01/18 01:38:37;;;;;;;1.60;1.40;;;4.30;98.20;;;;;;5093814;28;20495;-77
2021/01/18 01:41:04;;;;;;;1.70;1.40;;;4.20;98.20;;;;;;5086106;28;20468;-77
2021/01/18 01:43:31;;;;;;;1.70;1.47;;;4.20;98.20;;;;;;5091153;28;20495;-76
2021/01/18 01:45:57;;;;;;;1.60;1.40;;;4.20;98.20;;;;;;5091941;28;20472;-76
2021/01/18 01:48:25;;;;;;;2.53;2.33;;;4.20;98.20;;;;;;5094211;28;20509;-77
2021/01/18 01:50:52;;;;;;;1.60;1.30;;;4.20;98.20;;;;;;5094009;28;20464;-77
2021/01/18 01:53:22;;;;;;;1.60;1.30;;;4.20;98.20;;;;;;5090779;28;20488;-78
2021/01/18 01:55:50;;;;;;;1.67;1.40;;;4.20;98.20;;;;;;5093277;28;20518;-77
2021/01/18 01:58:17;;;;;;;1.70;1.40;;;4.20;98.20;;;;;;5093560;28;20471;-77
2021/01/18 02:00:43;;;;;;;1.63;1.30;;;4.30;98.20;;;;;;5085124;28;20553;-78
2021/01/18 02:03:11;;;;;;;3.00;2.60;;;4.30;98.20;;;;;;5089316;28;20516;-77
2021/01/18 02:05:39;;;;;;;1.60;1.40;;;4.30;98.20;;;;;;5091716;28;20453;-76
2021/01/18 02:08:07;;;;;;;1.67;1.30;;;4.30;98.20;;;;;;5086763;28;20471;-76
2021/01/18 02:10:35;;;;;;;1.60;1.30;;;4.30;98.20;;;;;;5089837;28;20468;-76
2021/01/18 02:13:11;;;;;;;1.60;1.30;;;4.30;98.20;;;;;;5091844;28;20520;-77
2021/01/18 02:15:46;;;;;;;1.60;1.40;;;4.30;98.20;;;;;;5085747;28;20533;-77
2021/01/18 02:18:34;;;;;;;2.90;2.70;;;4.30;98.20;;;;;;5085940;28;20500;-76
2021/01/18 02:21:32;;;;;;;1.60;1.40;;;4.30;98.20;;;;;;5089699;28;20463;-76
2021/01/18 02:24:41;;;;;;;1.70;1.57;;;4.20;98.20;;;;;;5087632;28;20463;-77
2021/01/18 02:27:42;;;;;;;1.70;1.40;;;4.20;98.20;;;;;;5090003;28;20954;-77
2021/01/18 02:30:28;;;;;;;1.60;1.37;;;4.20;98.20;;;;;;5089655;28;20480;-77
2021/01/18 02:33:21;;;;;;;1.60;1.30;;;4.20;98.20;;;;;;5087301;28;20504;-77
2021/01/18 02:36:07;;;;;;;1.60;1.30;;;4.20;98.20;;;;;;5093700;28;20490;-77
2021/01/18 02:38:40;;;;;;;1.60;1.30;;;4.20;98.20;;;;;;5097338;28;20484;-76
2021/01/18 02:41:17;;;;;;;1.70;1.50;;;4.20;98.20;;;;;;5090128;28;20461;-77
2021/01/18 02:43:48;;;;;;;1.60;1.30;;;4.20;98.20;;;;;;5089015;28;20487;-76
2021/01/18 02:46:17;;;;;;;1.70;1.40;;;4.20;98.20;;;;;;5067039;28;21179;-77
2021/01/18 02:48:45;;;;;;;1.60;1.40;;;4.20;98.20;;;;;;5079836;28;20559;-77
2021/01/18 02:51:17;;;;;;;1.67;1.40;;;4.20;98.20;;;;;;5083363;28;20487;-77
2021/01/18 02:53:55;;;;;;;1.60;1.40;;;4.20;98.20;;;;;;5090000;28;20520;-76
2021/01/18 02:56:25;;;;;;;1.60;1.30;;;4.20;98.20;;;;;;5093779;28;20488;-77
2021/01/18 02:58:52;;;;;;;1.67;1.50;;;4.20;98.20;;;;;;5095389;28;20480;-77
2021/01/18 03:01:36;;;;;;;1.60;1.40;;;4.20;98.20;;;;;;5091546;28;20468;-77
2021/01/18 03:04:06;;;;;;;1.60;1.30;;;4.10;98.20;;;;;;5094468;28;20463;-77
2021/01/18 03:06:41;;;;;;;1.60;1.30;;;4.10;98.20;;;;;;5095917;28;20464;-77
2021/01/18 03:09:15;;;;;;;1.63;1.40;;;4.20;98.20;;;;;;5087728;28;20480;-77
2021/01/18 03:11:46;;;;;;;1.70;1.40;;;4.10;98.20;;;;;;5090975;28;20526;-76
2021/01/18 03:14:22;;;;;;;1.63;1.40;;;4.10;98.20;;;;;;5096709;28;21018;-76
2021/01/18 03:16:51;;;;;;;1.70;1.50;;;4.10;98.20;;;;;;5096019;28;20464;-76
2021/01/18 03:19:24;;;;;;;1.60;1.30;;;4.10;98.20;;;;;;5101436;28;20473;-77
2021/01/18 03:21:51;;;;;;;1.73;1.63;;;4.20;98.20;;;;;;5098749;28;20507;-77
2021/01/18 03:24:22;;;;;;;1.60;1.30;;;4.10;98.20;;;;;;5097632;28;20506;-76
2021/01/18 03:26:48;;;;;;;1.70;1.40;;;4.10;98.20;;;;;;5095485;28;20489;-76
2021/01/18 03:29:15;;;;;;;1.63;1.30;;;4.10;98.20;;;;;;5094119;28;21154;-76
2021/01/18 03:31:42;;;;;;;1.60;1.37;;;4.10;98.20;;;;;;5092871;28;20550;-76
2021/01/18 03:34:08;;;;;;;1.60;1.40;;;4.10;98.20;;;;;;5093763;28;20480;-76
2021/01/18 03:36:35;;;;;;;1.60;1.40;;;4.10;98.20;;;;;;5096096;28;20465;-76
2021/01/18 03:39:03;;;;;;;1.60;1.30;;;4.10;98.20;;;;;;5095289;28;20476;-76
2021/01/18 03:41:29;;;;;;;1.63;1.40;;;4.10;98.20;;;;;;5089376;28;20869;-76
2021/01/18 03:43:56;;;;;;;1.63;1.30;;;4.10;98.20;;;;;;5090426;28;21139;-77
2021/01/18 03:46:24;;;;;;;1.60;1.40;;;4.10;98.20;;;;;;5090035;28;20477;-75
2021/01/18 03:48:50;;;;;;;1.60;1.30;;;4.10;98.20;;;;;;5094752;28;20555;-77
2021/01/18 03:51:17;;;;;;;1.60;1.30;;;4.10;98.20;;;;;;5096930;28;20488;-77
2021/01/18 03:53:43;;;;;;;1.60;1.30;;;4.10;98.20;;;;;;5090107;28;20480;-77
2021/01/18 03:56:11;;;;;;;1.70;1.50;;;4.10;98.20;;;;;;5092005;28;20479;-77
2021/01/18 03:58:37;;;;;;;1.70;1.40;;;4.10;98.20;;;;;;5097353;28;20488;-77
2021/01/18 04:01:04;;;;;;;1.60;1.40;;;4.10;98.20;;;;;;5092081;28;20831;-76
2021/01/18 04:03:30;;;;;;;1.70;1.40;;;4.10;98.20;;;;;;5094437;28;20467;-77
2021/01/18 04:05:58;;;;;;;1.70;1.40;;;4.10;98.20;;;;;;5091167;28;20503;-78
2021/01/18 04:08:24;;;;;;;1.60;1.40;;;4.10;98.20;;;;;;5091449;28;20461;-77
2021/01/18 04:10:51;;;;;;;1.67;1.40;;;4.10;98.20;;;;;;5083826;28;20546;-77
2021/01/18 04:13:18;;;;;;;1.60;1.30;;;4.10;98.20;;;;;;5090232;28;20495;-77
2021/01/18 04:15:44;;;;;;;1.70;1.40;;;4.10;98.20;;;;;;5091279;28;20469;-76
2021/01/18 04:18:11;;;;;;;1.60;1.40;;;4.10;98.20;;;;;;5095966;28;20525;-76
2021/01/18 04:20:37;;;;;;;1.63;1.40;;;4.10;98.20;;;;;;5098055;28;20892;-76
2021/01/18 04:23:04;;;;;;;1.60;1.30;;;4.10;98.20;;;;;;5091522;28;20464;-76
2021/01/18 04:25:31;;;;;;;1.60;1.30;;;4.10;98.20;;;;;;5092042;28;20461;-76
2021/01/18 04:28:00;;;;;;;1.63;1.40;;;4.10;98.20;;;;;;5092764;28;20456;-76
2021/01/18 04:30:30;;;;;;;1.70;1.43;;;4.10;98.20;;;;;;5090956;28;21174;-76
2021/01/18 04:32:57;;;;;;;1.67;1.40;;;4.10;98.20;;;;;;5092264;28;20504;-76
2021/01/18 04:35:24;;;;;;;1.60;1.30;;;4.10;98.20;;;;;;5095738;28;20461;-76
2021/01/18 04:37:51;;;;;;;1.60;1.40;;;4.10;98.20;;;;;;5092325;28;20472;-76
2021/01/18 04:40:18;;;;;;;1.70;1.40;;;4.10;98.20;;;;;;5093425;28;20480;-76
2021/01/18 04:42:45;;;;;;;1.67;1.40;;;4.10;98.20;;;;;;5091699;28;21187;-76
2021/01/18 04:45:14;;;;;;;1.63;1.43;;;4.10;98.20;;;;;;5087930;28;20456;-76
2021/01/18 04:47:43;;;;;;;1.60;1.40;;;4.10;98.20;;;;;;5090741;28;20461;-75
2021/01/18 04:50:12;;;;;;;1.60;1.30;;;4.10;98.20;;;;;;5081309;28;20512;-77
2021/01/18 04:52:49;;;;;;;1.60;1.40;;;4.10;98.20;;;;;;5089762;28;20505;-77
2021/01/18 04:55:31;;;;;;;1.60;1.30;;;4.10;98.20;;;;;;5089046;28;20484;-77
2021/01/18 04:58:11;;;;;;;1.63;1.40;;;4.10;98.20;;;;;;5090310;28;20459;-76
2021/01/18 05:00:43;;;;;;;1.63;1.30;;;4.10;98.20;;;;;;5092991;28;20465;-76
2021/01/18 05:03:12;;;;;;;1.67;1.30;;;4.10;98.20;;;;;;5091710;28;20517;-76
2021/01/18 05:06:21;;;;;;;1.60;1.30;;;4.10;98.20;;;;;;5089085;28;20489;-76
2021/01/18 05:09:29;;;;;;;1.70;1.40;;;4.00;98.20;;;;;;5051347;28;20476;-77
2021/01/18 05:12:00;;;;;;;1.70;1.40;;;4.00;98.20;;;;;;5085464;28;20491;-77
2021/01/18 05:14:26;;;;;;;1.63;1.40;;;4.00;98.20;;;;;;5090275;28;20943;-77
2021/01/18 05:16:56;;;;;;;1.63;1.40;;;4.00;98.20;;;;;;5087762;28;20471;-77
2021/01/18 05:19:25;;;;;;;1.60;1.30;;;4.00;98.20;;;;;;5091865;28;20513;-77
2021/01/18 05:21:52;;;;;;;1.60;1.30;;;4.00;98.20;;;;;;5096782;27;20460;-77
2021/01/18 05:24:20;;;;;;;1.60;1.40;;;4.00;98.20;;;;;;5094930;28;20460;-76
2021/01/18 05:27:07;;;;;;;1.63;1.40;;;4.00;98.20;;;;;;5094326;28;20459;-77
2021/01/18 05:29:35;;;;;;;1.67;1.30;;;4.00;98.20;;;;;;5090124;28;20629;-77
2021/01/18 05:32:02;;;;;;;1.63;1.30;;;4.00;98.20;;;;;;5091104;28;20968;-77
2021/01/18 05:34:31;;;;;;;1.60;1.30;;;4.00;98.20;;;;;;5093667;28;20480;-76
2021/01/18 05:36:58;;;;;;;1.67;1.30;;;4.00;98.20;;;;;;5091364;28;20543;-77
2021/01/18 05:39:30;;;;;;;1.63;1.30;;;4.00;98.20;;;;;;5092138;28;20475;-76
2021/01/18 05:41:57;;;;;;;1.60;1.30;;;4.00;98.20;;;;;;5089486;28;20475;-76
2021/01/18 05:44:34;;;;;;;3.30;3.10;;;4.00;98.20;;;;;;5090200;28;20456;-76
2021/01/18 05:47:05;;;;;;;1.60;1.30;;;4.00;98.20;;;;;;5084933;28;20598;-77
2021/01/18 05:49:44;;;;;;;1.67;1.40;;;4.00;98.20;;;;;;5089659;28;20529;-75
2021/01/18 05:52:24;;;;;;;1.70;1.50;;;4.00;98.20;;;;;;5099591;28;20492;-77
2021/01/18 05:55:15;;;;;;;1.70;1.50;;;4.10;98.20;;;;;;5091032;28;20551;-77
2021/01/18 05:57:48;;;;;;;1.63;1.30;;;4.10;98.20;;;;;;5094127;28;20467;-76
2021/01/18 06:00:30;;;;;;;1.60;1.40;;;4.10;98.20;;;;;;5099738;28;20484;-76
2021/01/18 06:02:59;;;;;;;1.63;1.40;;;4.10;98.20;;;;;;5094290;28;20457;-76
2021/01/18 06:05:31;;;;;;;1.70;1.60;;;4.10;98.20;;;;;;5096428;28;20506;-77
2021/01/18 06:08:11;;;;;;;1.70;1.50;;;4.10;98.20;;;;;;5093658;28;20759;-76
2021/01/18 06:10:38;;;;;;;1.60;1.30;;;4.10;98.20;;;;;;5091038;28;21013;-77
2021/01/18 06:13:17;;;;;;;1.70;1.40;;;4.10;98.20;;;;;;5090347;28;20484;-77
2021/01/18 06:15:44;;;;;;;1.60;1.30;;;4.10;98.20;;;;;;5095630;28;20593;-77
2021/01/18 06:18:13;;;;;;;1.60;1.30;;;4.10;98.20;;;;;;5094030;28;20468;-77
2021/01/18 06:20:43;;;;;;;1.60;1.30;;;4.10;98.20;;;;;;5100775;28;20452;-77
2021/01/18 06:23:10;;;;;;;1.70;1.40;;;4.10;98.20;;;;;;5098276;28;20465;-77
2021/01/18 06:25:38;;;;;;;1.60;1.40;;;4.10;98.20;;;;;;5096653;28;20475;-77
2021/01/18 06:28:19;;;;;;;1.60;1.30;;;4.10;98.20;;;;;;5092733;28;20477;-77
2021/01/18 06:30:54;;;;;;;1.63;1.30;;;4.10;98.20;;;;;;5090739;28;20970;-77
2021/01/18 06:33:20;;;;;;;1.63;1.40;;;4.10;98.20;;;;;;5095444;28;21071;-77
2021/01/18 06:35:48;;;;;;;1.60;1.40;;;4.10;98.20;;;;;;5093867;28;20544;-77
2021/01/18 06:38:21;;;;;;;1.63;1.40;;;4.10;98.20;;;;;;5092803;28;20522;-77
2021/01/18 06:40:56;;;;;;;1.60;1.40;;;4.10;98.20;;;;;;5094171;28;20503;-76
2021/01/18 06:43:23;;;;;;;1.60;1.30;;;4.10;98.20;;;;;;5096092;28;20463;-77
2021/01/18 06:45:50;;;;;;;1.60;1.30;;;4.10;98.20;;;;;;5094483;28;20491;-77
2021/01/18 06:48:17;;;;;;;1.70;1.40;;;4.10;98.20;;;;;;5093825;28;20610;-77
2021/01/18 06:50:43;;;;;;;1.60;1.30;;;4.10;98.20;;;;;;5095013;28;20515;-77
2021/01/18 06:53:23;;;;;;;1.60;1.30;;;4.10;98.20;;;;;;5096744;28;20536;-77
2021/01/18 06:56:49;;;;;;;1.67;1.37;;;4.10;98.20;;;;;;5092235;28;20495;-77
2021/01/18 06:59:34;;;;;;;1.63;1.40;;;4.10;98.20;;;;;;5093709;28;20491;-77
2021/01/18 07:02:15;;;;;;;1.67;1.40;;;4.10;98.20;;;;;;5082162;28;20465;-77
2021/01/18 07:04:46;;;;;;;1.60;1.40;;;4.10;98.20;;;;;;5093118;28;20496;-77
2021/01/18 07:07:23;;;;;;;1.63;1.50;;;4.10;98.20;;;;;;5093278;28;20453;-77
2021/01/18 07:09:56;;;;;;;1.63;1.33;;;4.10;98.20;;;;;;5091135;28;20487;-77
2021/01/18 07:12:25;;;;;;;1.60;1.30;;;4.10;98.20;;;;;;5091223;28;20571;-78
2021/01/18 07:14:57;;;;;;;1.60;1.37;;;4.10;98.20;;;;;;5084518;28;20466;-76
2021/01/18 07:17:37;;;;;;;1.60;1.30;;;4.10;98.20;;;;;;5091258;28;20452;-76
2021/01/18 07:20:08;;;;;;;1.60;1.30;;;4.10;98.20;;;;;;5096250;28;20839;-76
2021/01/18 07:22:38;;;;;;;1.60;1.30;;;4.10;98.20;;;;;;5089394;28;20462;-76
2021/01/18 07:25:12;;;;;;;1.70;1.40;;;4.10;98.20;;;;;;5092933;28;20467;-76
2021/01/18 07:27:44;;;;;;;1.70;1.40;;;4.10;98.20;;;;;;5088134;28;20493;-77
2021/01/18 07:30:14;;;;;;;1.63;1.40;;;4.10;98.20;;;;;;5092415;28;20500;-77
2021/01/18 07:32:44;;;;;;;1.63;1.30;;;4.10;98.20;;;;;;5092443;28;20564;-76
2021/01/18 07:35:12;;;;;;;2.00;1.80;;;4.00;98.20;;;;;;5091911;28;20490;-76
2021/01/18 07:37:49;;;;;;;1.60;1.30;;;4.00;98.20;;;;;;5093041;28;20647;-77
2021/01/18 07:40:28;;;;;;;1.70;1.40;;;4.00;98.20;;;;;;5091360;28;20537;-77
2021/01/18 07:42:55;;;;;;;1.63;1.40;;;4.00;98.20;;;;;;5091237;28;20457;-77
2021/01/18 07:45:24;;;;;;;1.67;1.37;;;4.00;98.20;;;;;;5090801;28;20460;-77
2021/01/18 07:48:07;;;;;;;1.60;1.30;;;4.00;98.20;;;;;;5089382;28;20457;-79
2021/01/18 07:50:38;;;;;;;1.70;1.40;;;4.00;98.20;;;;;;5089484;28;20543;-76
2021/01/18 07:53:06;;;;;;;1.63;1.30;;;4.00;98.20;;;;;;5082941;28;20476;-77
2021/01/18 07:55:34;;;;;;;1.60;1.30;;;4.00;98.20;;;;;;5086374;28;20495;-77
2021/01/18 07:58:15;;;;;;;1.63;1.30;;;4.00;98.20;;;;;;5085463;28;20904;-76
2021/01/18 08:00:43;;;;;;;1.70;1.40;;;4.00;98.20;;;;;;5092778;28;22073;-76
2021/01/18 08:03:26;;;;;;;1.60;1.30;;;4.00;98.20;;;;;;5082046;28;20457;-76
2021/01/18 08:06:15;;;;;;;1.70;1.40;;;4.00;98.20;;;;;;5089416;28;20528;-76
2021/01/18 08:08:42;;;;;;;1.67;1.43;;;4.00;98.20;;;;;;5088714;28;20866;-76
2021/01/18 08:11:19;;;;;;;1.70;1.40;;;4.00;98.20;;;;;;5084486;28;20511;-77
2021/01/18 08:14:16;;;;;;;1.60;1.30;;;4.00;98.20;;;;;;5088276;28;20491;-76
2021/01/18 08:16:47;;;;;;;1.60;1.30;;;4.00;98.20;;;;;;5089885;28;20464;-77
2021/01/18 08:19:26;;;;;;;1.70;1.30;;;4.00;98.20;;;;;;5089915;28;20641;-76
2021/01/18 08:22:00;;;;;;;1.67;1.40;;;4.00;98.20;;;;;;5090074;28;20466;-77
2021/01/18 08:24:52;;;;;;;1.67;1.40;;;4.00;98.20;;;;;;5091482;28;20457;-77
2021/01/18 08:27:41;;;;;;;1.70;1.57;;;4.10;98.20;;;;;;5089592;28;20456;-76
2021/01/18 08:30:37;;;;;;;1.70;1.50;;;4.10;98.20;;;;;;5080041;28;20520;-77
2021/01/18 08:33:09;;;;;;;1.60;1.30;;;4.20;98.20;;;;;;5040995;28;20878;-77
2021/01/18 08:35:46;;;;;;;1.70;1.30;;;4.30;98.20;;;;;;5087465;28;20532;-77
2021/01/18 08:38:26;;;;;;;1.63;1.30;;;4.30;98.20;;;;;;5085183;28;20468;-77
2021/01/18 08:41:07;;;;;;;1.60;1.30;;;4.40;98.20;;;;;;5090119;28;20483;-77
2021/01/18 08:43:52;;;;;;;1.60;1.40;;;4.40;98.20;;;;;;5090517;28;21034;-77
2021/01/18 08:46:40;;;;;;;1.67;1.40;;;4.50;98.20;;;;;;5086123;28;20818;-77
2021/01/18 08:49:31;;;;;;;1.67;1.30;;;4.60;98.20;;;;;;5085110;28;20483;-77
2021/01/18 08:52:01;;;;;;;1.60;1.30;;;4.70;98.20;;;;;;5093232;28;20453;-77
2021/01/18 08:54:31;;;;;;;1.70;1.40;;;4.80;98.20;;;;;;5092460;28;20499;-77
2021/01/18 08:57:23;;;;;;;1.60;1.30;;;4.80;98.20;;;;;;5093271;28;20489;-77
2021/01/18 09:00:02;;;;;;;1.63;1.30;;;4.80;98.20;;;;;;5093621;28;20480;-77
2021/01/18 09:02:29;;;;;;;1.60;1.30;;;4.90;98.20;;;;;;5090138;28;20986;-77
2021/01/18 09:05:11;;;;;;;1.60;1.30;;;4.90;98.20;;;;;;5092358;28;20525;-77
2021/01/18 09:07:38;;;;;;;1.70;1.30;;;5.00;98.20;;;;;;5095618;28;20787;-77
2021/01/18 09:10:05;;;;;;;2.40;2.20;;;5.00;98.20;;;;;;5093533;28;20478;-77
2021/01/18 09:12:33;;;;;;;1.63;1.40;;;5.00;98.20;;;;;;5095911;28;20514;-78
2021/01/18 09:15:07;;;;;;;1.70;1.40;;;5.00;98.20;;;;;;5089305;28;20493;-77
2021/01/18 09:17:34;;;;;;;1.70;1.40;;;5.10;98.20;;;;;;5097250;28;20463;-77
2021/01/18 09:20:03;;;;;;;1.60;1.30;;;5.10;98.20;;;;;;5099879;28;20599;-77
2021/01/18 09:22:32;;;;;;;1.70;1.40;;;5.10;98.20;;;;;;5092309;28;20476;-77
2021/01/18 09:24:59;;;;;;;1.60;1.30;;;5.20;98.20;;;;;;5091667;28;20475;-76
2021/01/18 09:27:26;;;;;;;1.90;1.70;;;5.20;98.20;;;;;;5095142;28;20973;-76
2021/01/18 09:29:59;;;;;;;1.60;1.30;;;5.30;98.20;;;;;;5094813;28;20507;-76
2021/01/18 09:32:27;;;;;;;1.60;1.30;;;5.30;98.20;;;;;;5090249;28;20459;-76
2021/01/18 09:35:06;;;;;;;1.70;1.30;;;5.30;98.20;;;;;;5090670;28;20511;-77
2021/01/18 09:37:32;;;;;;;1.67;1.33;;;5.40;98.20;;;;;;5091950;28;20462;-76
2021/01/18 09:40:03;;;;;;;1.60;1.30;;;5.40;98.20;;;;;;5089662;28;20492;-77
2021/01/18 09:42:31;;;;;;;1.70;1.30;;;5.50;98.20;;;;;;5093013;28;20537;-76
2021/01/18 09:44:58;;;;;;;1.63;1.30;;;5.50;98.20;;;;;;5092561;28;20502;-77
2021/01/18 09:47:26;;;;;;;1.60;1.30;;;5.50;98.20;;;;;;5093966;28;20464;-77
2021/01/18 09:49:52;;;;;;;1.60;1.30;;;5.60;98.20;;;;;;5096811;28;20516;-76
2021/01/18 09:52:19;;;;;;;1.60;1.30;;;5.60;98.20;;;;;;5094658;28;20492;-76
2021/01/18 09:54:50;;;;;;;1.67;1.40;;;5.70;98.20;;;;;;5094998;28;20641;-76
2021/01/18 09:57:20;;;;;;;1.63;1.30;;;5.70;98.20;;;;;;5092353;28;20470;-76
2021/01/18 09:59:50;;;;;;;1.70;1.40;;;5.70;98.20;;;;;;5091277;28;20869;-76
2021/01/18 10:02:18;;;;;;;1.67;1.27;;;5.70;98.20;;;;;;5091632;28;20463;-76
2021/01/18 10:04:49;;;;;;;1.60;1.27;;;5.80;98.20;;;;;;5092397;28;20543;-77
2021/01/18 10:07:16;;;;;;;1.70;1.40;;;5.80;98.20;;;;;;5086471;28;20581;-77
2021/01/18 10:09:45;;;;;;;1.60;1.20;;;5.80;98.20;;;;;;5096962;28;20511;-77
2021/01/18 10:12:14;;;;;;;1.70;1.30;;;5.80;98.20;;;;;;5092082;28;20472;-77
2021/01/18 10:14:50;;;;;;;1.70;1.40;;;5.80;98.20;;;;;;5087771;28;20476;-77
2021/01/18 10:17:17;;;;;;;1.67;1.27;;;5.80;98.20;;;;;;5091093;28;20460;-77
2021/01/18 10:19:43;;;;;;;1.63;1.27;;;5.80;98.20;;;;;;5093462;28;20467;-77
2021/01/18 10:22:16;;;;;;;1.67;1.30;;;5.80;98.20;;;;;;5097857;28;20499;-77
2021/01/18 10:24:53;;;;;;;1.67;1.30;;;5.80;98.20;;;;;;5091632;28;20951;-77
2021/01/18 10:27:25;;;;;;;1.60;1.20;;;5.90;98.20;;;;;;5092913;28;20852;-77
2021/01/18 10:30:09;;;;;;;1.60;1.23;;;5.90;98.20;;;;;;5092432;28;20477;-77
2021/01/18 10:32:40;;;;;;;1.60;1.30;;;5.90;98.20;;;;;;5094261;28;20997;-77
2021/01/18 10:35:29;;;;;;;4.10;3.70;;;5.90;98.20;;;;;;5090461;28;20460;-77
2021/01/18 10:38:12;;;;;;;1.70;1.50;;;6.00;98.20;;;;;;5087439;28;20490;-77
2021/01/18 10:40:39;;;;;;;1.70;1.50;;;5.90;98.20;;;;;;5087715;28;20514;-77
2021/01/18 10:43:07;;;;;;;1.60;1.20;;;5.90;98.20;;;;;;5091140;28;20518;-77
2021/01/18 10:45:41;;;;;;;1.67;1.30;;;5.90;98.20;;;;;;5091792;28;20457;-77
2021/01/18 10:48:08;;;;;;;1.67;1.30;;;5.90;98.20;;;;;;5085105;28;20487;-78
2021/01/18 10:50:35;;;;;;;1.60;1.20;;;5.90;98.20;;;;;;5089281;28;21033;-78
2021/01/18 10:53:09;;;;;;;1.60;1.20;;;5.90;98.20;;;;;;5090479;28;20523;-77
2021/01/18 10:55:38;;;;;;;1.63;1.30;;;5.90;98.20;;;;;;5087399;28;20604;-77
2021/01/18 10:58:04;;;;;;;1.60;1.30;;;5.90;98.20;;;;;;5089318;28;20492;-77
2021/01/18 11:00:32;;;;;;;1.63;1.30;;;6.00;98.20;;;;;;5090278;28;20484;-78
2021/01/18 11:03:01;;;;;;;1.60;1.20;;;6.00;98.20;;;;;;5092392;28;20504;-78
2021/01/18 11:05:35;;;;;;;1.60;1.20;;;6.00;98.20;;;;;;5086753;28;20468;-77
2021/01/18 11:08:04;;;;;;;1.60;1.30;;;6.10;98.20;;;;;;5086377;28;20463;-77
2021/01/18 11:10:32;;;;;;;1.63;1.30;;;6.20;98.20;;;;;;5088502;28;20519;-77
2021/01/18 11:13:06;;;;;;;2.83;1.90;;;6.20;98.20;;;;;;5089511;28;20893;-77
2021/01/18 11:15:38;;;;;;;1.70;1.40;;;6.20;98.20;;;;;;5088849;28;20970;-77
2021/01/18 11:18:06;;;;;;;1.67;1.30;;;6.20;98.20;;;;;;5090278;28;20461;-77
2021/01/18 11:20:33;;;;;;;1.60;1.20;;;6.30;98.20;;;;;;5091771;28;20472;-77
2021/01/18 11:23:00;;;;;;;1.60;1.20;;;6.30;98.20;;;;;;5089975;28;20452;-77
2021/01/18 11:25:29;;;;;;;1.70;1.30;;;6.40;98.20;;;;;;5089787;28;20486;-77
2021/01/18 11:28:08;;;;;;;1.63;1.30;;;6.40;98.20;;;;;;5093066;28;20461;-77
2021/01/18 11:30:34;;;;;;;1.60;1.30;;;6.40;98.20;;;;;;5094163;28;20535;-77
2021/01/18 11:33:01;;;;;;;1.63;1.30;;;6.40;98.20;;;;;;5089414;28;20522;-77
2021/01/18 11:35:27;;;;;;;1.63;1.30;;;6.40;98.20;;;;;;5088415;28;20465;-77
2021/01/18 11:37:54;;;;;;;1.60;1.20;;;6.40;98.20;;;;;;5090669;28;20495;-77
2021/01/18 11:40:21;;;;;;;1.60;1.30;;;6.40;98.20;;;;;;5092877;28;20515;-77
2021/01/18 11:42:47;;;;;;;1.67;1.30;;;6.40;98.20;;;;;;5092305;28;20468;-77
2021/01/18 11:45:15;;;;;;;2.23;2.03;;;6.50;98.20;;;;;;5090709;28;20492;-77
2021/01/18 11:47:42;;;;;;;1.60;1.30;;;6.50;98.20;;;;;;5092458;28;20900;-77
2021/01/18 11:50:10;;;;;;;1.60;1.30;;;6.50;98.20;;;;;;5098017;28;20484;-77
2021/01/18 11:52:44;;;;;;;1.60;1.23;;;6.50;98.20;;;;;;5092511;28;20467;-77
2021/01/18 11:55:11;;;;;;;1.60;1.20;;;6.50;98.20;;;;;;5094889;28;20492;-77
2021/01/18 11:57:42;;;;;;;1.70;1.40;;;6.50;98.20;;;;;;5092550;28;20904;-77
2021/01/18 12:00:09;;;;;;;1.67;1.30;;;6.60;98.20;;;;;;5092486;28;20567;-76
2021/01/18 12:02:37;;;;;;;1.67;1.30;;;6.60;98.20;;;;;;5091555;28;21304;-77
2021/01/18 12:05:05;;;;;;;1.63;1.30;;;6.60;98.20;;;;;;5092197;28;20472;-77
2021/01/18 12:07:31;;;;;;;1.67;1.30;;;6.70;98.20;;;;;;5091513;28;20465;-77
2021/01/18 12:09:58;;;;;;;1.60;1.30;;;6.80;98.20;;;;;;5086106;28;20815;-77
2021/01/18 12:12:34;;;;;;;1.60;1.30;;;6.80;98.20;;;;;;5085694;28;20480;-77
2021/01/18 12:15:02;;;;;;;1.63;1.30;;;6.90;98.20;;;;;;5079304;28;21034;-77
2021/01/18 12:17:38;;;;;;;1.67;1.27;;;7.00;98.20;;;;;;5086557;28;20475;-76
2021/01/18 12:20:06;;;;;;;1.60;1.30;;;7.10;98.20;;;;;;5084666;28;20555;-75
2021/01/18 12:22:32;;;;;;;1.60;1.20;;;7.20;98.20;;;;;;5086959;28;20460;-75
2021/01/18 12:25:01;;;;;;;1.70;1.30;;;7.20;98.20;;;;;;5086900;28;20457;-76
2021/01/18 12:27:28;;;;;;;1.97;1.77;;;7.30;98.20;;;;;;5085697;28;20491;-77
2021/01/18 12:30:04;;;;;;;1.67;1.30;;;7.30;98.20;;;;;;5091333;28;21186;-77
2021/01/18 12:32:30;;;;;;;1.70;1.40;;;7.30;98.20;;;;;;5091052;28;20546;-76
2021/01/18 12:34:58;;;;;;;1.60;1.20;;;7.30;98.20;;;;;;5090127;28;21247;-77
2021/01/18 12:37:24;;;;;;;1.60;1.20;;;7.30;98.20;;;;;;5091903;28;20524;-77
2021/01/18 12:39:51;;;;;;;1.70;1.40;;;7.30;98.20;;;;;;5091304;28;20487;-76
2021/01/18 12:42:17;;;;;;;3.67;3.37;;;7.20;98.20;;;;;;5087335;28;20521;-75
2021/01/18 12:44:44;;;;;;;1.60;1.20;;;7.20;98.20;;;;;;5091528;28;20854;-74
2021/01/18 12:47:19;;;;;;;2.37;2.17;;;7.10;98.20;;;;;;5091525;28;20983;-74
2021/01/18 12:49:46;;;;;;;1.60;1.23;;;7.10;98.20;;;;;;5088309;28;20843;-74
2021/01/18 12:52:14;;;;;;;1.63;1.20;;;7.10;98.20;;;;;;5093946;28;20464;-75
2021/01/18 12:54:41;;;;;;;1.70;1.30;;;7.10;98.20;;;;;;5091611;28;20480;-75
2021/01/18 12:57:08;;;;;;;1.60;1.20;;;7.20;98.20;;;;;;5085086;28;20935;-75
2021/01/18 12:59:41;;;;;;;1.60;1.20;;;7.20;98.20;;;;;;5087250;28;20565;-74
2021/01/18 13:02:08;;;;;;;1.67;1.20;;;7.20;98.20;;;;;;5089733;28;20541;-74
2021/01/18 13:04:35;;;;;;;1.63;1.20;;;7.20;98.20;;;;;;5087248;28;20888;-75
2021/01/18 13:07:02;;;;;;;1.60;1.20;;;7.20;98.20;;;;;;5088464;28;20464;-75
2021/01/18 13:09:31;;;;;;;1.70;1.40;;;7.20;98.20;;;;;;5087460;28;20491;-73
2021/01/18 13:11:58;;;;;;;1.70;1.50;;;7.20;98.20;;;;;;5085082;28;20933;-75
2021/01/18 13:14:25;;;;;;;1.70;1.40;;;7.20;98.20;;;;;;5087685;28;20926;-74
2021/01/18 13:16:57;;;;;;;1.67;1.20;;;7.20;98.20;;;;;;5087324;28;21204;-74
2021/01/18 13:19:25;;;;;;;1.70;1.30;;;7.10;98.20;;;;;;5089985;28;20603;-74